createdAt,value
2023-05-10T00:00:49.391Z,98238.00
2023-05-10T00:03:15.949Z,98239.72
2023-05-10T00:05:42.846Z,98233.78
2023-05-10T00:08:09.316Z,98247.78
2023-05-10T00:10:36.984Z,98240.78
2023-05-10T00:13:04.075Z,98235.06
2023-05-10T00:15:30.857Z,98237.75
2023-05-10T00:17:58.176Z,98236.34
2023-05-10T00:20:24.975Z,98229.47
2023-05-10T00:22:51.460Z,98227.84
2023-05-10T00:25:18.231Z,98223.28
2023-05-10T00:27:44.929Z,98219.44
2023-05-10T00:30:11.882Z,98217.56
2023-05-10T00:32:38.773Z,98222.94
2023-05-10T00:35:05.953Z,98221.66
2023-05-10T00:37:32.407Z,98222.34
2023-05-10T00:39:58.814Z,98210.78
2023-05-10T00:42:25.531Z,98220.47
2023-05-10T00:44:52.389Z,98229.00
2023-05-10T00:47:19.938Z,98228.53
2023-05-10T00:49:46.844Z,98220.03
2023-05-10T00:52:13.214Z,98226.91
2023-05-10T00:54:40.035Z,98236.72
2023-05-10T00:57:06.540Z,98256.28
2023-05-10T00:59:33.455Z,98281.31
2023-05-10T01:01:59.943Z,98309.56
2023-05-10T01:04:26.753Z,98317.91
2023-05-10T01:06:54.033Z,98333.66
2023-05-10T01:09:22.231Z,98350.91
2023-05-10T01:11:50.041Z,98368.00
2023-05-10T01:14:19.446Z,98379.19
2023-05-10T01:16:48.640Z,98393.88
2023-05-10T01:19:23.152Z,98398.22
2023-05-10T01:22:25.561Z,98398.66
2023-05-10T01:25:18.352Z,98386.66
2023-05-10T01:27:49.896Z,98388.50
2023-05-10T01:30:44.945Z,98385.09
2023-05-10T01:33:33.732Z,98385.69
2023-05-10T01:36:31.214Z,98386.50
2023-05-10T01:39:17.213Z,98393.13
2023-05-10T01:41:56.023Z,98392.69
2023-05-10T01:44:46.734Z,98394.19
2023-05-10T01:47:32.269Z,98405.94
2023-05-10T01:50:04.167Z,98411.97
2023-05-10T01:52:38.275Z,98426.44
2023-05-10T01:55:10.707Z,98428.28
2023-05-10T01:57:41.913Z,98431.41
2023-05-10T02:00:10.036Z,98431.41
2023-05-10T02:02:40.877Z,98430.84
2023-05-10T02:05:08.269Z,98435.38
2023-05-10T02:07:37.673Z,98430.22
2023-05-10T02:10:08.556Z,98424.13
2023-05-10T02:12:49.449Z,98433.22
2023-05-10T02:15:23.336Z,98433.59
2023-05-10T02:17:50.962Z,98429.31
2023-05-10T02:20:20.415Z,98427.06
2023-05-10T02:22:50.063Z,98438.63
2023-05-10T02:25:18.868Z,98437.44
2023-05-10T02:27:47.357Z,98441.97
2023-05-10T02:30:17.398Z,98431.63
2023-05-10T02:32:45.144Z,98426.69
2023-05-10T02:35:12.249Z,98423.41
2023-05-10T02:37:40.766Z,98405.06
2023-05-10T02:40:09.284Z,98403.63
2023-05-10T02:42:38.918Z,98395.41
2023-05-10T02:45:25.715Z,98392.13
2023-05-10T02:47:52.536Z,98385.97
2023-05-10T02:50:19.948Z,98382.91
2023-05-10T02:52:57.045Z,98374.66
2023-05-10T02:55:28.856Z,98365.47
2023-05-10T02:57:59.763Z,98372.94
2023-05-10T03:00:26.678Z,98370.91
2023-05-10T03:02:54.040Z,98362.84
2023-05-10T03:05:21.385Z,98366.72
2023-05-10T03:07:48.518Z,98370.00
2023-05-10T03:10:15.413Z,98366.53
2023-05-10T03:13:09.262Z,98364.22
2023-05-10T03:16:05.358Z,98365.03
2023-05-10T03:18:43.130Z,98358.03
2023-05-10T03:21:12.591Z,98362.13
2023-05-10T03:23:51.169Z,98365.47
2023-05-10T03:26:28.473Z,98357.81
2023-05-10T03:28:56.508Z,98351.09
2023-05-10T03:31:24.031Z,98350.88
2023-05-10T03:33:51.894Z,98349.09
2023-05-10T03:36:20.718Z,98361.22
2023-05-10T03:38:50.266Z,98354.81
2023-05-10T03:41:17.031Z,98343.72
2023-05-10T03:43:43.556Z,98352.84
2023-05-10T03:46:10.093Z,98357.78
2023-05-10T03:48:36.671Z,98365.00
2023-05-10T03:51:03.394Z,98364.34
2023-05-10T03:53:29.949Z,98363.22
2023-05-10T03:55:56.703Z,98363.41
2023-05-10T03:58:25.384Z,98377.44
2023-05-10T04:00:53.533Z,98366.78
2023-05-10T04:03:20.197Z,98370.28
2023-05-10T04:05:46.663Z,98376.69
2023-05-10T04:08:13.184Z,98367.66
2023-05-10T04:10:40.068Z,98374.44
2023-05-10T04:13:06.894Z,98378.38
2023-05-10T04:15:33.828Z,98382.50
2023-05-10T04:18:00.624Z,98378.31
2023-05-10T04:20:27.089Z,98374.38
2023-05-10T04:22:53.681Z,98377.84
2023-05-10T04:25:20.342Z,98375.53
2023-05-10T04:27:47.188Z,98374.50
2023-05-10T04:30:14.119Z,98375.69
2023-05-10T04:32:40.787Z,98377.78
2023-05-10T04:35:08.396Z,98386.13
2023-05-10T04:37:34.939Z,98382.47
2023-05-10T04:40:01.459Z,98391.94
2023-05-10T04:42:29.314Z,98399.75
2023-05-10T04:44:56.688Z,98410.88
2023-05-10T04:47:24.659Z,98423.44
2023-05-10T04:49:51.150Z,98420.25
2023-05-10T04:52:17.596Z,98433.44
2023-05-10T04:54:45.111Z,98447.91
2023-05-10T04:57:11.626Z,98453.75
2023-05-10T04:59:38.473Z,98481.94
2023-05-10T05:02:06.628Z,98498.81
2023-05-10T05:04:33.405Z,98508.72
2023-05-10T05:07:00.619Z,98534.13
2023-05-10T05:09:27.472Z,98568.19
2023-05-10T05:11:54.161Z,98599.09
2023-05-10T05:14:21.216Z,98625.66
2023-05-10T05:16:48.056Z,98615.91
2023-05-10T05:19:14.670Z,98609.88
2023-05-10T05:21:41.228Z,98596.44
2023-05-10T05:24:08.790Z,98589.78
2023-05-10T05:26:37.287Z,98589.78
2023-05-10T05:29:03.906Z,98616.56
2023-05-10T05:31:32.070Z,98680.47
2023-05-10T05:33:58.624Z,98739.38
2023-05-10T05:36:25.229Z,98764.31
2023-05-10T05:38:52.434Z,98748.94
2023-05-10T05:41:18.931Z,98733.13
2023-05-10T05:43:46.058Z,98710.88
2023-05-10T05:46:13.052Z,98711.66
2023-05-10T05:48:40.074Z,98714.19
2023-05-10T05:51:11.117Z,98732.03
2023-05-10T05:53:37.918Z,98747.50
2023-05-10T05:56:04.750Z,98755.13
2023-05-10T05:58:31.367Z,98778.22
2023-05-10T06:00:57.828Z,98789.09
2023-05-10T06:03:30.433Z,98779.72
2023-05-10T06:05:57.108Z,98747.06
2023-05-10T06:08:24.254Z,98735.09
2023-05-10T06:10:51.664Z,98726.91
2023-05-10T06:13:18.388Z,98705.56
2023-05-10T06:15:45.331Z,98685.56
2023-05-10T06:18:12.154Z,98658.28
2023-05-10T06:20:38.699Z,98651.66
2023-05-10T06:23:05.316Z,98648.44
2023-05-10T06:25:34.784Z,98656.09
2023-05-10T06:28:01.287Z,98654.94
2023-05-10T06:30:27.858Z,98651.38
2023-05-10T06:32:56.269Z,98668.44
2023-05-10T06:35:24.337Z,98702.94
2023-05-10T06:37:51.500Z,98724.41
2023-05-10T06:40:20.987Z,98725.09
2023-05-10T06:42:49.408Z,98731.50
2023-05-10T06:45:17.315Z,98735.63
2023-05-10T06:47:45.363Z,98725.25
2023-05-10T06:50:12.439Z,98721.91
2023-05-10T06:52:39.096Z,98725.97
2023-05-10T06:55:06.111Z,98735.53
2023-05-10T06:57:33.365Z,98742.13
2023-05-10T07:00:00.969Z,98755.19
2023-05-10T07:02:27.964Z,98773.28
2023-05-10T07:04:55.085Z,98778.66
2023-05-10T07:07:21.755Z,98771.59
2023-05-10T07:09:48.727Z,98770.66
2023-05-10T07:12:16.080Z,98779.44
2023-05-10T07:14:43.180Z,98786.97
2023-05-10T07:17:10.135Z,98798.16
2023-05-10T07:19:40.986Z,98816.63
2023-05-10T07:22:07.860Z,98831.31
2023-05-10T07:24:35.793Z,98841.38
2023-05-10T07:27:02.698Z,98867.81
2023-05-10T07:29:29.393Z,98890.44
2023-05-10T07:31:59.017Z,98877.66
2023-05-10T07:34:26.531Z,98852.63
2023-05-10T07:36:53.474Z,98853.22
2023-05-10T07:39:26.526Z,98860.56
2023-05-10T07:41:53.958Z,98875.19
2023-05-10T07:44:20.516Z,98906.06
2023-05-10T07:46:47.779Z,98918.06
2023-05-10T07:49:14.500Z,98947.97
2023-05-10T07:51:41.315Z,98967.72
2023-05-10T07:54:08.151Z,98976.00
2023-05-10T07:56:35.573Z,98978.91
2023-05-10T07:59:03.863Z,98976.53
2023-05-10T08:01:35.300Z,98982.22
2023-05-10T08:04:02.411Z,98985.19
2023-05-10T08:06:30.189Z,98984.16
2023-05-10T08:09:02.385Z,98981.78
2023-05-10T08:11:28.884Z,98977.88
2023-05-10T08:13:55.506Z,98979.88
2023-05-10T08:16:22.316Z,98988.00
2023-05-10T08:18:48.920Z,98996.69
2023-05-10T08:21:16.619Z,98995.19
2023-05-10T08:23:43.459Z,98996.41
2023-05-10T08:26:11.367Z,98981.22
2023-05-10T08:28:37.940Z,98976.59
2023-05-10T08:31:06.094Z,98981.13
2023-05-10T08:33:32.732Z,98985.94
2023-05-10T08:36:01.003Z,98988.13
2023-05-10T08:38:27.870Z,98989.69
2023-05-10T08:40:58.074Z,98988.06
2023-05-10T08:43:28.456Z,98965.00
2023-05-10T08:45:55.562Z,98956.97
2023-05-10T08:48:25.076Z,98960.59
2023-05-10T08:50:54.194Z,98944.75
2023-05-10T08:53:21.218Z,98938.84
2023-05-10T08:55:48.733Z,98928.50
2023-05-10T08:58:15.907Z,98926.75
2023-05-10T09:00:43.020Z,98911.69
2023-05-10T09:03:10.402Z,98887.38
2023-05-10T09:05:38.927Z,98921.03
2023-05-10T09:08:07.147Z,98877.44
2023-05-10T09:10:33.807Z,98876.97
2023-05-10T09:13:00.401Z,98920.47
2023-05-10T09:15:27.159Z,99014.69
2023-05-10T09:17:53.794Z,98907.47
2023-05-10T09:20:20.633Z,98901.63
2023-05-10T09:22:47.283Z,98917.38
2023-05-10T09:25:20.167Z,98931.25
2023-05-10T09:27:48.365Z,98920.34
2023-05-10T09:30:24.460Z,98814.53
2023-05-10T09:32:55.159Z,98861.13
2023-05-10T09:35:25.092Z,98922.50
2023-05-10T09:37:55.828Z,98907.09
2023-05-10T09:40:25.611Z,98913.53
2023-05-10T09:42:59.352Z,98990.69
2023-05-10T09:45:28.437Z,99028.41
2023-05-10T09:47:55.607Z,99054.59
2023-05-10T09:50:23.182Z,99069.56
2023-05-10T09:52:53.111Z,99070.44
2023-05-10T09:55:22.635Z,99104.34
2023-05-10T09:57:52.933Z,99115.81
2023-05-10T10:00:20.900Z,99181.94
2023-05-10T10:02:49.563Z,99239.72
2023-05-10T10:05:18.192Z,99357.69
2023-05-10T10:07:48.012Z,99000.03
2023-05-10T10:10:16.489Z,98989.06
2023-05-10T10:12:44.049Z,98997.00
2023-05-10T10:15:14.062Z,99001.53
2023-05-10T10:17:44.563Z,98999.81
2023-05-10T10:20:12.305Z,99003.97
2023-05-10T10:22:41.293Z,99003.50
2023-05-10T10:25:09.399Z,99011.19
2023-05-10T10:27:54.708Z,99018.91
2023-05-10T10:30:32.438Z,99023.50
2023-05-10T10:33:27.323Z,99030.97
2023-05-10T10:35:57.370Z,99018.75
2023-05-10T10:38:24.260Z,98992.66
2023-05-10T10:41:03.656Z,98955.75
2023-05-10T10:43:30.896Z,98939.22
2023-05-10T10:46:26.552Z,98894.56
2023-05-10T10:49:15.765Z,98892.91
2023-05-10T10:52:17.518Z,98805.63
2023-05-10T10:55:13.371Z,98754.47
2023-05-10T10:57:49.715Z,98774.84
2023-05-10T11:00:19.889Z,98771.81
2023-05-10T11:02:48.069Z,98778.72
2023-05-10T11:05:29.910Z,98751.44
2023-05-10T11:07:58.369Z,98771.09
2023-05-10T11:10:26.416Z,98865.97
2023-05-10T11:13:09.926Z,98916.66
2023-05-10T11:15:40.801Z,98972.47
2023-05-10T11:18:32.728Z,99017.44
2023-05-10T11:21:04.087Z,99013.06
2023-05-10T11:23:48.477Z,99010.63
2023-05-10T11:26:15.259Z,99011.69
2023-05-10T11:28:49.125Z,99010.44
2023-05-10T11:31:20.362Z,99009.09
2023-05-10T11:33:49.603Z,99004.19
2023-05-10T11:36:18.703Z,99021.84
2023-05-10T11:38:46.427Z,99030.19
2023-05-10T11:41:13.826Z,98976.44
2023-05-10T11:43:41.271Z,98912.25
2023-05-10T11:46:09.076Z,98937.53
2023-05-10T11:48:35.753Z,98947.31
2023-05-10T11:51:03.080Z,98944.91
2023-05-10T11:53:32.577Z,98973.81
2023-05-10T11:56:10.326Z,98999.63
2023-05-10T11:58:38.967Z,99044.00
2023-05-10T12:01:08.213Z,99062.19
2023-05-10T12:03:36.239Z,99073.97
2023-05-10T12:06:03.726Z,99081.63
2023-05-10T12:08:32.737Z,99090.28
2023-05-10T12:11:08.067Z,99083.06
2023-05-10T12:13:42.238Z,99088.22
2023-05-10T12:16:30.461Z,99088.00
2023-05-10T12:18:59.135Z,99098.91
2023-05-10T12:21:26.486Z,99087.13
2023-05-10T12:23:54.741Z,99086.47
2023-05-10T12:26:25.510Z,99066.72
2023-05-10T12:28:52.017Z,99053.94
2023-05-10T12:31:19.777Z,99040.78
2023-05-10T12:33:47.880Z,99026.75
2023-05-10T12:36:16.140Z,99012.28
2023-05-10T12:38:43.753Z,98993.75
2023-05-10T12:41:12.722Z,98945.53
2023-05-10T12:43:40.334Z,98958.09
2023-05-10T12:46:11.458Z,98961.63
2023-05-10T12:48:39.389Z,98971.47
2023-05-10T12:51:06.661Z,99009.16
2023-05-10T12:53:33.059Z,99063.28
2023-05-10T12:56:00.084Z,99080.19
2023-05-10T12:58:35.637Z,99092.84
2023-05-10T13:01:03.667Z,99095.59
2023-05-10T13:03:32.566Z,99102.44
2023-05-10T13:06:01.598Z,99092.75
2023-05-10T13:08:28.101Z,99092.09
2023-05-10T13:10:54.846Z,99095.63
2023-05-10T13:13:21.646Z,99099.16
2023-05-10T13:15:48.237Z,99092.78
2023-05-10T13:18:19.043Z,99096.03
2023-05-10T13:20:46.217Z,99086.16
2023-05-10T13:23:12.703Z,99073.59
2023-05-10T13:25:39.147Z,99083.50
2023-05-10T13:28:06.088Z,99070.25
2023-05-10T13:30:32.989Z,99077.91
2023-05-10T13:32:59.554Z,99071.09
2023-05-10T13:35:26.206Z,99062.75
2023-05-10T13:37:53.357Z,99069.97
2023-05-10T13:40:20.169Z,99075.28
2023-05-10T13:42:48.164Z,99080.38
2023-05-10T13:45:15.042Z,99077.69
2023-05-10T13:47:41.813Z,99074.25
2023-05-10T13:50:09.183Z,99071.84
2023-05-10T13:52:35.839Z,99066.38
2023-05-10T13:55:04.632Z,99085.34
2023-05-10T13:57:32.318Z,99059.69
2023-05-10T13:59:59.556Z,99034.84
2023-05-10T14:02:26.068Z,99047.34
2023-05-10T14:04:53.826Z,98984.97
2023-05-10T14:07:21.486Z,98972.72
2023-05-10T14:09:47.964Z,98989.50
2023-05-10T14:12:14.778Z,99026.13
2023-05-10T14:14:42.486Z,99054.59
2023-05-10T14:17:13.181Z,99062.84
2023-05-10T14:19:39.908Z,99053.91
2023-05-10T14:22:06.687Z,99032.16
2023-05-10T14:24:33.461Z,99006.63
2023-05-10T14:26:59.963Z,98992.41
2023-05-10T14:29:26.475Z,99019.59
2023-05-10T14:31:53.690Z,99045.19
2023-05-10T14:34:20.486Z,99051.81
2023-05-10T14:36:47.486Z,99060.28
2023-05-10T14:39:14.006Z,99032.06
2023-05-10T14:41:46.188Z,99059.53
2023-05-10T14:44:13.873Z,99052.53
2023-05-10T14:46:40.713Z,98932.13
2023-05-10T14:49:08.721Z,99001.03
2023-05-10T14:51:35.883Z,99063.00
2023-05-10T14:54:02.428Z,99015.34
2023-05-10T14:56:30.756Z,99013.03
2023-05-10T14:58:58.801Z,98981.47
2023-05-10T15:01:26.121Z,98949.63
2023-05-10T15:03:55.114Z,98895.19
2023-05-10T15:06:35.270Z,98926.63
2023-05-10T15:09:04.749Z,98909.88
2023-05-10T15:11:32.613Z,98942.50
2023-05-10T15:13:59.748Z,98943.56
2023-05-10T15:16:26.669Z,98934.88
2023-05-10T15:18:54.837Z,98898.97
2023-05-10T15:21:21.500Z,98924.50
2023-05-10T15:23:48.520Z,98926.00
2023-05-10T15:26:15.107Z,98919.19
2023-05-10T15:28:41.692Z,98923.72
2023-05-10T15:31:11.320Z,98885.22
2023-05-10T15:33:39.024Z,98825.22
2023-05-10T15:36:05.889Z,98888.88
2023-05-10T15:38:32.629Z,98911.97
2023-05-10T15:40:59.239Z,98882.34
2023-05-10T15:43:25.782Z,98907.84
2023-05-10T15:45:52.311Z,98870.94
2023-05-10T15:48:19.970Z,98851.72
2023-05-10T15:50:47.709Z,98836.03
2023-05-10T15:53:18.707Z,98844.50
2023-05-10T15:55:45.472Z,98925.56
2023-05-10T15:58:12.854Z,98903.69
2023-05-10T16:00:39.637Z,98835.81
2023-05-10T16:03:06.362Z,98886.19
2023-05-10T16:05:33.351Z,98871.63
2023-05-10T16:08:00.967Z,98906.19
2023-05-10T16:10:28.491Z,98926.13
2023-05-10T16:12:56.649Z,98951.16
2023-05-10T16:15:23.412Z,98913.81
2023-05-10T16:17:51.298Z,98934.56
2023-05-10T16:20:19.695Z,98942.09
2023-05-10T16:22:46.544Z,98903.94
2023-05-10T16:25:13.745Z,98873.00
2023-05-10T16:27:40.688Z,98927.47
2023-05-10T16:30:09.157Z,98971.75
2023-05-10T16:32:38.914Z,99015.19
2023-05-10T16:35:08.206Z,99029.97
2023-05-10T16:37:35.029Z,99052.94
2023-05-10T16:40:01.797Z,99014.28
2023-05-10T16:42:28.334Z,99004.50
2023-05-10T16:44:55.522Z,98996.34
2023-05-10T16:47:27.305Z,99008.97
2023-05-10T16:49:59.050Z,99036.31
2023-05-10T16:52:25.950Z,99075.78
2023-05-10T16:54:57.757Z,99092.59
2023-05-10T16:57:24.731Z,99097.00
2023-05-10T16:59:51.686Z,99088.38
2023-05-10T17:02:21.391Z,99096.50
2023-05-10T17:04:48.413Z,99117.28
2023-05-10T17:07:15.543Z,99113.28
2023-05-10T17:09:45.413Z,99114.28
2023-05-10T17:12:12.227Z,99104.56
2023-05-10T17:14:48.680Z,99085.94
2023-05-10T17:17:16.382Z,99106.44
2023-05-10T17:19:47.822Z,99132.66
2023-05-10T17:22:14.490Z,99125.69
2023-05-10T17:24:40.984Z,99132.94
2023-05-10T17:27:11.782Z,99119.00
2023-05-10T17:29:42.077Z,99106.03
2023-05-10T17:32:13.139Z,99115.00
2023-05-10T17:34:39.752Z,99089.47
2023-05-10T17:37:09.679Z,99104.75
2023-05-10T17:39:37.498Z,99183.19
2023-05-10T17:42:05.594Z,99227.34
2023-05-10T17:44:32.573Z,99258.34
2023-05-10T17:47:00.285Z,99274.53
2023-05-10T17:49:27.001Z,99277.28
2023-05-10T17:51:55.846Z,99301.66
2023-05-10T17:54:23.120Z,99276.03
2023-05-10T17:56:52.080Z,99289.69
2023-05-10T17:59:19.050Z,99305.81
2023-05-10T18:01:46.094Z,99342.63
2023-05-10T18:04:13.025Z,99344.50
2023-05-10T18:06:39.625Z,99360.00
2023-05-10T18:09:06.785Z,99377.78
2023-05-10T18:11:37.199Z,99372.63
2023-05-10T18:14:03.807Z,99378.81
2023-05-10T18:16:33.202Z,99458.19
2023-05-10T18:19:00.569Z,99072.44
2023-05-10T18:21:29.512Z,99055.06
2023-05-10T18:23:56.249Z,99059.22
2023-05-10T18:26:22.888Z,99079.47
2023-05-10T18:28:49.791Z,99084.22
2023-05-10T18:31:16.337Z,99091.69
2023-05-10T18:33:43.163Z,99105.97
2023-05-10T18:36:09.877Z,99118.53
2023-05-10T18:38:36.928Z,99118.38
2023-05-10T18:41:04.197Z,99119.38
2023-05-10T18:43:31.642Z,99119.16
2023-05-10T18:45:58.238Z,99135.28
2023-05-10T18:48:25.091Z,99128.06
2023-05-10T18:50:51.648Z,99134.03
2023-05-10T18:53:18.598Z,99133.00
2023-05-10T18:55:46.596Z,99132.59
2023-05-10T18:58:13.770Z,99129.28
2023-05-10T19:00:40.398Z,99112.59
2023-05-10T19:03:07.064Z,99124.34
2023-05-10T19:05:33.967Z,99135.06
2023-05-10T19:08:02.017Z,99140.66
2023-05-10T19:10:30.005Z,99136.72
2023-05-10T19:12:56.961Z,99133.84
2023-05-10T19:15:23.741Z,99124.34
2023-05-10T19:17:57.553Z,99116.50
2023-05-10T19:20:25.063Z,99093.63
2023-05-10T19:23:08.241Z,99063.28
2023-05-10T19:25:36.508Z,99043.28
2023-05-10T19:28:02.928Z,99021.41
2023-05-10T19:30:30.520Z,99028.00
2023-05-10T19:32:57.812Z,99035.41
2023-05-10T19:35:24.739Z,99054.63
2023-05-10T19:37:54.589Z,99070.72
2023-05-10T19:40:22.562Z,99063.91
2023-05-10T19:42:49.391Z,99061.81
2023-05-10T19:45:20.048Z,99054.63
2023-05-10T19:47:47.363Z,99048.41
2023-05-10T19:50:14.060Z,99017.28
2023-05-10T19:52:40.740Z,99001.00
2023-05-10T19:55:07.955Z,98985.53
2023-05-10T19:57:34.730Z,98993.34
2023-05-10T20:00:01.569Z,98999.34
2023-05-10T20:02:28.205Z,98996.22
2023-05-10T20:04:54.733Z,99003.03
2023-05-10T20:07:21.246Z,99000.75
2023-05-10T20:09:47.991Z,98985.31
2023-05-10T20:12:14.738Z,98972.09
2023-05-10T20:14:41.298Z,98955.63
2023-05-10T20:17:08.337Z,98933.38
2023-05-10T20:19:35.237Z,98925.94
2023-05-10T20:22:01.812Z,98921.22
2023-05-10T20:24:28.558Z,98926.56
2023-05-10T20:26:55.485Z,98918.69
2023-05-10T20:29:22.024Z,98913.75
2023-05-10T20:31:49.591Z,98921.19
2023-05-10T20:34:16.182Z,98911.69
2023-05-10T20:36:43.053Z,98914.56
2023-05-10T20:39:09.778Z,98915.19
2023-05-10T20:41:36.363Z,98908.38
2023-05-10T20:44:03.167Z,98904.91
2023-05-10T20:46:30.309Z,98895.00
2023-05-10T20:48:57.362Z,98884.09
2023-05-10T20:51:24.602Z,98886.38
2023-05-10T20:53:52.090Z,98887.59
2023-05-10T20:56:18.850Z,98888.22
2023-05-10T20:58:45.641Z,98877.91
2023-05-10T21:01:12.274Z,98868.63
2023-05-10T21:03:39.127Z,98861.41
2023-05-10T21:06:05.735Z,98848.25
2023-05-10T21:08:32.440Z,98821.50
2023-05-10T21:10:59.720Z,98801.53
2023-05-10T21:13:28.675Z,98795.94
2023-05-10T21:15:55.398Z,98785.88
2023-05-10T21:18:22.527Z,98788.13
2023-05-10T21:20:49.399Z,98805.84
2023-05-10T21:23:16.012Z,98833.00
2023-05-10T21:25:42.523Z,98897.09
2023-05-10T21:28:09.027Z,98960.31
2023-05-10T21:30:37.631Z,98988.72
2023-05-10T21:33:04.435Z,98985.63
2023-05-10T21:35:31.130Z,98978.63
2023-05-10T21:37:57.680Z,98983.75
2023-05-10T21:40:25.507Z,99001.44
2023-05-10T21:42:52.205Z,99001.66
2023-05-10T21:45:20.361Z,98982.50
2023-05-10T21:47:47.140Z,98981.28
2023-05-10T21:50:14.449Z,98985.38
2023-05-10T21:52:41.059Z,98989.09
2023-05-10T21:55:08.371Z,98986.66
2023-05-10T21:57:34.888Z,98972.22
2023-05-10T22:00:01.897Z,98966.88
2023-05-10T22:02:28.485Z,98963.16
2023-05-10T22:04:55.105Z,98959.47
2023-05-10T22:07:22.156Z,98966.44
2023-05-10T22:09:48.732Z,98980.63
2023-05-10T22:12:15.593Z,98993.19
2023-05-10T22:14:45.058Z,99005.53
2023-05-10T22:17:11.699Z,99016.03
2023-05-10T22:19:38.246Z,99011.69
2023-05-10T22:22:04.993Z,99024.88
2023-05-10T22:24:32.616Z,99028.94
2023-05-10T22:26:59.306Z,99003.00
2023-05-10T22:29:25.920Z,98985.06
2023-05-10T22:31:52.585Z,98967.75
2023-05-10T22:34:19.037Z,98965.09
2023-05-10T22:36:45.513Z,98952.50
2023-05-10T22:39:13.094Z,98957.84
2023-05-10T22:41:39.642Z,98957.03
2023-05-10T22:44:06.662Z,98952.50
2023-05-10T22:46:33.214Z,98933.97
2023-05-10T22:48:59.813Z,98926.78
2023-05-10T22:51:26.516Z,98912.56
2023-05-10T22:53:53.061Z,98898.19
2023-05-10T22:56:23.341Z,98889.75
2023-05-10T22:58:51.940Z,98875.13
2023-05-10T23:01:18.615Z,98856.63
2023-05-10T23:03:45.106Z,98850.84
2023-05-10T23:06:11.867Z,98836.66
2023-05-10T23:08:38.609Z,98817.28
2023-05-10T23:11:07.068Z,98820.59
2023-05-10T23:13:35.330Z,98810.72
2023-05-10T23:16:06.545Z,98807.84
2023-05-10T23:18:33.620Z,98804.16
2023-05-10T23:21:00.212Z,98797.75
2023-05-10T23:23:27.080Z,98793.84
2023-05-10T23:25:55.263Z,98785.38
2023-05-10T23:28:22.900Z,98782.09
2023-05-10T23:30:54.832Z,98782.28
2023-05-10T23:33:21.661Z,98776.09
2023-05-10T23:35:48.091Z,98765.16
2023-05-10T23:38:14.840Z,98768.88
2023-05-10T23:40:41.588Z,98778.13
2023-05-10T23:43:08.105Z,98775.69
2023-05-10T23:45:34.688Z,98789.25
2023-05-10T23:48:01.341Z,98796.44
2023-05-10T23:50:28.032Z,98797.88
2023-05-10T23:52:54.831Z,98797.88
2023-05-10T23:55:21.670Z,98809.63
2023-05-10T23:57:48.307Z,98804.66
